Time;durP1;ratioP1;P1;durP2;ratioP2;P2;SDS_P1;SDS_P2;PMS_P1;PMS_P2;Temp;Humidity;BMP_temperature;BMP_pressure;BME280_temperature;BME280_humidity;BME280_pressure;Samples;Min_cycle;Max_cycle;Signal;HPM_P1;HPM_P2
2022/11/28 00:00:24;;;;;;;87.95;46.53;;;;;;;2.67;85.64;101092.95;2115706;84;27759;-73
2022/11/28 00:03:27;;;;;;;91.53;49.08;;;;;;;2.65;85.56;101090.75;2115085;84;27916;-73
2022/11/28 00:06:28;;;;;;;89.87;49.80;;;;;;;2.64;85.59;101092.96;2115583;84;31856;-73
2022/11/28 00:09:30;;;;;;;95.00;49.67;;;;;;;2.66;85.65;101091.20;2115482;84;32406;-73
2022/11/28 00:12:31;;;;;;;99.58;52.65;;;;;;;2.67;85.59;101086.34;2115469;84;29335;-74
2022/11/28 00:15:32;;;;;;;86.10;48.58;;;;;;;2.69;85.65;101085.00;2115724;84;27742;-74
2022/11/28 00:18:34;;;;;;;87.35;48.63;;;;;;;2.70;85.52;101077.08;2115076;84;29770;-75
2022/11/28 00:21:35;;;;;;;85.57;48.55;;;;;;;2.68;85.42;101071.33;2123764;82;31853;-75
2022/11/28 00:24:36;;;;;;;88.92;48.17;;;;;;;2.66;85.42;101063.42;2191604;81;33794;-75
2022/11/28 00:27:38;;;;;;;86.75;49.00;;;;;;;2.67;85.33;101062.95;2130130;82;29319;-73
2022/11/28 00:30:39;;;;;;;84.22;47.17;;;;;;;2.64;85.27;101059.89;2190883;81;27718;-73
2022/11/28 00:33:41;;;;;;;89.25;51.28;;;;;;;2.61;85.22;101055.07;2224041;80;29727;-73
2022/11/28 00:36:45;;;;;;;96.47;50.78;;;;;;;2.60;85.20;101059.47;2224029;80;31012;-72
2022/11/28 00:39:46;;;;;;;91.22;51.65;;;;;;;2.57;85.11;101056.41;2224135;79;32943;-72
2022/11/28 00:42:47;;;;;;;88.03;50.17;;;;;;;2.55;85.09;101058.17;2224163;79;29363;-74
2022/11/28 00:45:49;;;;;;;88.07;51.70;;;;;;;2.49;84.91;101055.53;2224345;80;27791;-75
2022/11/28 00:48:51;;;;;;;99.52;52.98;;;;;;;2.41;84.81;101056.03;2224114;79;28627;-75
2022/11/28 00:51:52;;;;;;;93.65;52.95;;;;;;;2.36;84.83;101052.51;2212847;79;31021;-72
2022/11/28 00:54:53;;;;;;;98.10;53.20;;;;;;;2.30;84.83;101046.80;2149431;82;33732;-72
2022/11/28 00:57:54;;;;;;;97.45;52.25;;;;;;;2.23;84.78;101047.27;2190287;81;29337;-73
2022/11/28 01:00:55;;;;;;;101.18;54.80;;;;;;;2.18;84.82;101051.69;2151758;82;27696;-73
2022/11/28 01:04:00;;;;;;;99.60;54.08;;;;;;;2.13;84.86;101047.73;2224108;80;28641;-71
2022/11/28 01:07:02;;;;;;;94.92;52.62;;;;;;;2.08;84.92;101051.28;2224114;79;31833;-71
2022/11/28 01:10:04;;;;;;;103.07;55.65;;;;;;;2.04;84.91;101046.87;2224028;79;32937;-72
2022/11/28 01:13:05;;;;;;;92.88;52.73;;;;;;;2.00;84.94;101046.44;2223828;80;29329;-73
2022/11/28 01:16:07;;;;;;;97.17;54.33;;;;;;;1.93;84.94;101039.86;2223878;79;27708;-73
2022/11/28 01:19:09;;;;;;;98.80;55.15;;;;;;;1.87;84.90;101035.03;2224215;79;28578;-73
2022/11/28 01:22:13;;;;;;;104.70;55.98;;;;;;;1.82;84.88;101036.38;2224104;79;30599;-74
2022/11/28 01:25:15;;;;;;;98.92;55.43;;;;;;;1.76;84.84;101032.41;2224070;79;33169;-74
2022/11/28 01:28:16;;;;;;;99.60;53.68;;;;;;;1.64;84.77;101030.23;2222326;79;29321;-71
2022/11/28 01:31:22;;;;;;;92.65;53.68;;;;;;;1.56;84.81;101019.23;2219967;80;27682;-72
2022/11/28 01:34:23;;;;;;;105.52;55.78;;;;;;;1.50;84.83;101024.05;2219530;80;28765;-73
2022/11/28 01:37:24;;;;;;;98.42;55.95;;;;;;;1.43;84.81;101015.25;2219949;80;31014;-73
2022/11/28 01:40:26;;;;;;;108.22;57.80;;;;;;;1.35;84.73;101010.43;2220025;80;32963;-72
2022/11/28 01:43:27;;;;;;;93.58;53.85;;;;;;;1.26;84.72;101007.35;2205446;80;29448;-73
2022/11/28 01:46:29;;;;;;;95.10;54.05;;;;;;;1.19;84.77;100998.98;2155544;82;27711;-73
2022/11/28 01:49:35;;;;;;;98.82;54.03;;;;;;;1.13;84.79;100998.99;2155327;82;29491;-71
2022/11/28 01:52:41;;;;;;;96.32;52.25;;;;;;;1.03;84.79;101000.29;2155701;82;31879;-72
2022/11/28 01:55:55;;;;;;;98.72;51.90;;;;;;;0.96;84.81;100990.63;2156925;82;33811;-71
2022/11/28 01:59:01;;;;;;;103.58;54.63;;;;;;;0.90;84.92;100993.24;2156199;82;30125;-72
2022/11/28 02:02:06;;;;;;;92.90;53.70;;;;;;;0.85;84.87;100984.44;2156409;82;27693;-72
2022/11/28 02:05:08;;;;;;;93.60;52.90;;;;;;;0.78;84.89;100979.59;2156657;81;28845;-72
2022/11/28 02:08:09;;;;;;;104.23;56.42;;;;;;;0.71;84.97;100974.75;2157655;82;31036;-71
2022/11/28 02:11:48;;;;;;;98.80;54.88;;;;;;;0.66;84.95;100976.52;2157245;82;32942;-71
2022/11/28 02:15:01;;;;;;;98.00;54.23;;;;;;;0.63;84.99;100972.97;2157350;82;30100;-70
2022/11/28 02:18:32;;;;;;;98.50;52.93;;;;;;;0.59;85.07;100970.31;2157311;82;27772;-72
2022/11/28 02:21:59;;;;;;;90.87;51.05;;;;;;;0.54;85.09;100963.28;2155880;82;28671;-72
2022/11/28 02:25:15;;;;;;;97.37;54.48;;;;;;;0.48;85.09;100949.66;2157225;82;31154;-72
2022/11/28 02:28:58;;;;;;;96.95;54.67;;;;;;;0.44;85.11;100950.09;2156597;81;32999;-71
2022/11/28 02:32:34;;;;;;;89.25;53.52;;;;;;;0.40;85.09;100945.67;2157333;82;29352;-71
2022/11/28 02:35:43;;;;;;;94.20;52.40;;;;;;;0.36;85.15;100946.99;2157278;82;33030;-72
2022/11/28 02:38:53;;;;;;;92.90;52.20;;;;;;;0.28;85.09;100945.20;2156255;82;28674;-71
2022/11/28 02:42:18;;;;;;;92.53;52.60;;;;;;;0.25;85.15;100950.91;2157289;82;31075;-72
2022/11/28 02:45:46;;;;;;;99.90;52.90;;;;;;;0.23;85.15;100956.60;2121152;83;33043;-71
2022/11/28 02:48:58;;;;;;;96.70;54.88;;;;;;;0.19;85.15;100956.14;2121677;83;29376;-71
2022/11/28 02:52:08;;;;;;;96.85;53.80;;;;;;;0.14;85.14;100946.91;2146708;82;27734;-70
2022/11/28 02:55:10;;;;;;;97.82;54.48;;;;;;;0.12;85.22;100953.92;2108522;84;29597;-70
2022/11/28 02:58:12;;;;;;;93.97;54.83;;;;;;;0.11;85.29;100953.48;2146592;82;31041;-70
2022/11/28 03:01:32;;;;;;;104.30;56.50;;;;;;;0.10;85.35;100947.34;2123532;83;32960;-69
2022/11/28 03:05:13;;;;;;;97.22;53.95;;;;;;;0.09;85.36;100948.22;2174455;81;29418;-70
2022/11/28 03:08:36;;;;;;;98.80;54.25;;;;;;;0.09;85.43;100944.27;2070442;85;27756;-69
2022/11/28 03:11:59;;;;;;;95.40;53.73;;;;;;;0.11;85.56;100938.57;2070292;85;28673;-70
2022/11/28 03:15:05;;;;;;;104.35;55.98;;;;;;;0.14;85.68;100945.17;2106548;83;31874;-74
2022/11/28 03:18:25;;;;;;;97.97;52.38;;;;;;;0.21;85.80;100946.07;2098577;84;33761;-73
2022/11/28 03:21:40;;;;;;;90.15;50.43;;;;;;;0.29;85.93;100942.14;2096835;84;30139;-73
2022/11/28 03:25:09;;;;;;;97.00;53.25;;;;;;;0.36;85.93;100937.31;2097005;84;27824;-72
2022/11/28 03:28:22;;;;;;;91.80;50.40;;;;;;;0.45;85.97;100929.88;2093517;84;28662;-74
2022/11/28 03:31:35;;;;;;;92.72;51.70;;;;;;;0.54;85.91;100931.64;2067763;86;31163;-73
2022/11/28 03:34:43;;;;;;;92.82;50.73;;;;;;;0.57;85.74;100930.34;2066885;86;34079;-73
2022/11/28 03:38:06;;;;;;;99.28;53.65;;;;;;;0.60;85.71;100927.26;2067954;86;29348;-72
2022/11/28 03:41:21;;;;;;;93.05;49.45;;;;;;;0.66;85.70;100928.16;2068070;86;27783;-73
2022/11/28 03:44:29;;;;;;;90.77;49.73;;;;;;;0.70;85.67;100924.20;2097954;83;28669;-75
2022/11/28 03:47:35;;;;;;;91.12;49.48;;;;;;;0.75;85.78;100920.23;2137425;82;31012;-74
2022/11/28 03:50:44;;;;;;;94.22;49.93;;;;;;;0.84;85.92;100922.91;2137400;82;33762;-75
2022/11/28 03:54:08;;;;;;;88.52;48.13;;;;;;;0.88;85.73;100910.16;2137467;82;29330;-72
2022/11/28 03:57:39;;;;;;;91.20;48.92;;;;;;;0.93;85.56;100901.34;2137393;82;27745;-71
2022/11/28 04:00:51;;;;;;;83.80;45.98;;;;;;;0.95;85.37;100898.27;2113046;83;27866;-71
2022/11/28 04:04:29;;;;;;;77.20;44.75;;;;;;;0.97;85.38;100900.47;2132049;83;31807;-73
2022/11/28 04:07:39;;;;;;;84.90;47.13;;;;;;;0.97;85.32;100904.01;2137282;83;32971;-73
2022/11/28 04:10:48;;;;;;;90.50;48.92;;;;;;;1.03;85.48;100901.80;2137298;83;29334;-74
2022/11/28 04:14:03;;;;;;;82.88;47.10;;;;;;;1.07;85.44;100894.33;2136672;83;28217;-74
2022/11/28 04:17:13;;;;;;;86.60;46.18;;;;;;;1.10;85.43;100892.12;2137546;83;28719;-73
2022/11/28 04:20:32;;;;;;;82.40;46.65;;;;;;;1.15;85.28;100894.33;2137476;83;31115;-73
2022/11/28 04:23:35;;;;;;;81.15;46.35;;;;;;;1.14;85.17;100893.88;2137407;82;33758;-72
2022/11/28 04:26:47;;;;;;;83.72;46.55;;;;;;;1.19;85.39;100889.45;2137445;82;29330;-73
2022/11/28 04:29:57;;;;;;;84.90;45.85;;;;;;;1.25;85.21;100889.88;2134802;82;27717;-73
2022/11/28 04:33:04;;;;;;;79.55;45.08;;;;;;;1.24;85.04;100889.47;2129204;83;28924;-73
2022/11/28 04:36:08;;;;;;;79.30;44.13;;;;;;;1.22;84.85;100889.45;2176827;81;31025;-73
2022/11/28 04:39:14;;;;;;;89.17;45.55;;;;;;;1.21;84.82;100880.67;2173613;81;33016;-74
2022/11/28 04:42:36;;;;;;;81.95;44.58;;;;;;;1.19;84.70;100879.80;2173541;81;29317;-74
2022/11/28 04:45:43;;;;;;;81.67;44.67;;;;;;;1.16;84.63;100880.25;2172837;81;27738;-73
2022/11/28 04:48:44;;;;;;;78.75;42.48;;;;;;;1.14;84.65;100879.38;2173728;81;28656;-73
2022/11/28 04:51:59;;;;;;;83.00;44.93;;;;;;;1.13;84.65;100882.89;2173579;81;31023;-73
2022/11/28 04:55:21;;;;;;;84.22;45.30;;;;;;;1.14;84.74;100878.91;2173581;81;33007;-72
2022/11/28 04:58:35;;;;;;;80.40;43.85;;;;;;;1.16;84.81;100886.84;2173541;81;30388;-72
2022/11/28 05:01:37;;;;;;;81.57;43.60;;;;;;;1.21;84.93;100878.46;2173439;81;27673;-74
2022/11/28 05:04:39;;;;;;;73.50;41.70;;;;;;;1.24;84.74;100877.59;2173459;81;28645;-74
2022/11/28 05:07:40;;;;;;;74.72;42.70;;;;;;;1.24;84.65;100871.00;2151915;81;31020;-71
2022/11/28 05:10:42;;;;;;;84.60;44.75;;;;;;;1.20;84.48;100874.06;2173345;81;33676;-72
2022/11/28 05:13:43;;;;;;;91.15;49.42;;;;;;;1.21;84.55;100873.19;2173339;81;30084;-72
2022/11/28 05:16:45;;;;;;;84.30;45.10;;;;;;;1.21;84.61;100877.14;2174086;81;27577;-73
2022/11/28 05:19:46;;;;;;;77.30;42.20;;;;;;;1.23;84.57;100880.66;2173548;81;28625;-75
2022/11/28 05:22:47;;;;;;;83.10;45.25;;;;;;;1.26;84.64;100883.72;2173414;81;30983;-73
2022/11/28 05:25:49;;;;;;;87.40;46.95;;;;;;;1.28;84.59;100882.86;2178147;81;33153;-73
2022/11/28 05:28:50;;;;;;;76.30;41.42;;;;;;;1.29;84.50;100878.44;2136325;79;29332;-75
2022/11/28 05:31:52;;;;;;;87.67;43.75;;;;;;;1.30;84.54;100881.10;2177935;81;27683;-74
2022/11/28 05:34:53;;;;;;;87.50;45.50;;;;;;;1.32;84.59;100880.66;2178120;81;28696;-75
2022/11/28 05:37:54;;;;;;;75.60;43.60;;;;;;;1.36;84.62;100881.52;2178172;81;31052;-74
2022/11/28 05:40:55;;;;;;;75.97;43.05;;;;;;;1.41;84.75;100885.01;2178036;81;33823;-75
2022/11/28 05:43:58;;;;;;;86.67;45.03;;;;;;;1.42;84.44;100877.53;2178004;81;29297;-74
2022/11/28 05:47:04;;;;;;;80.42;44.45;;;;;;;1.40;84.22;100878.42;2177703;81;27727;-73
2022/11/28 05:50:07;;;;;;;79.50;40.30;;;;;;;1.41;84.42;100877.55;2178427;81;28830;-74
2022/11/28 05:53:09;;;;;;;83.97;43.98;;;;;;;1.43;84.35;100875.78;2178036;81;31812;-73
2022/11/28 05:56:16;;;;;;;76.20;44.13;;;;;;;1.42;84.23;100879.30;2178124;81;32970;-73
2022/11/28 05:59:17;;;;;;;84.30;42.35;;;;;;;1.43;84.29;100881.92;2178083;81;29323;-72
2022/11/28 06:02:18;;;;;;;76.30;42.50;;;;;;;1.44;84.37;100879.73;2178157;81;27774;-75
2022/11/28 06:05:20;;;;;;;82.85;44.08;;;;;;;1.46;84.27;100863.45;2177532;81;28763;-72
2022/11/28 06:08:21;;;;;;;83.30;43.40;;;;;;;1.47;84.29;100865.66;2177847;81;31159;-73
2022/11/28 06:11:25;;;;;;;83.27;46.02;;;;;;;1.49;84.31;100860.80;2177676;81;33183;-70
2022/11/28 06:14:26;;;;;;;83.70;44.70;;;;;;;1.49;84.36;100856.84;2178369;81;30179;-72
2022/11/28 06:17:27;;;;;;;82.22;42.90;;;;;;;1.50;84.31;100853.74;2178373;81;27727;-72
2022/11/28 06:20:29;;;;;;;84.72;44.03;;;;;;;1.48;84.24;100854.22;2178681;81;28930;-74
2022/11/28 06:23:31;;;;;;;83.75;44.90;;;;;;;1.50;84.29;100854.64;2177479;81;30977;-73
2022/11/28 06:26:32;;;;;;;83.95;45.55;;;;;;;1.52;84.27;100855.94;2178187;81;32938;-73
2022/11/28 06:29:33;;;;;;;79.60;45.30;;;;;;;1.54;84.38;100855.50;2180505;81;29312;-73
2022/11/28 06:32:35;;;;;;;88.92;46.88;;;;;;;1.55;84.29;100850.66;2189369;81;27655;-72
2022/11/28 06:35:36;;;;;;;85.90;47.93;;;;;;;1.58;84.41;100844.05;2189281;81;28692;-71
2022/11/28 06:38:38;;;;;;;92.55;47.50;;;;;;;1.60;84.37;100840.06;2189192;81;31057;-71
2022/11/28 06:41:39;;;;;;;83.95;46.10;;;;;;;1.61;84.31;100837.44;2189172;81;32360;-72
2022/11/28 06:44:40;;;;;;;78.05;44.42;;;;;;;1.60;84.16;100836.11;2189192;81;29360;-73
2022/11/28 06:47:41;;;;;;;81.17;43.30;;;;;;;1.60;84.17;100837.00;2189392;81;27702;-72
2022/11/28 06:50:43;;;;;;;85.50;45.80;;;;;;;1.61;84.26;100841.83;2189193;81;29316;-70
2022/11/28 06:53:44;;;;;;;84.07;44.48;;;;;;;1.64;84.25;100835.22;2189654;81;31070;-72
2022/11/28 06:56:45;;;;;;;89.17;46.33;;;;;;;1.64;84.24;100832.58;2191584;81;33887;-69
2022/11/28 06:59:49;;;;;;;84.58;45.08;;;;;;;1.66;84.23;100833.00;2191402;81;29343;-69
2022/11/28 07:02:50;;;;;;;84.92;45.40;;;;;;;1.68;84.25;100835.65;2191452;81;28187;-69
2022/11/28 07:05:52;;;;;;;80.95;44.48;;;;;;;1.73;84.27;100837.84;2191065;81;28677;-70
2022/11/28 07:08:56;;;;;;;88.72;45.20;;;;;;;1.76;84.31;100835.16;2191146;81;31062;-69
2022/11/28 07:11:58;;;;;;;86.37;46.73;;;;;;;1.80;84.22;100840.87;2191471;81;33773;-69
2022/11/28 07:14:59;;;;;;;97.30;50.35;;;;;;;1.79;84.05;100836.47;2191406;81;29327;-70
2022/11/28 07:18:00;;;;;;;84.45;48.02;;;;;;;1.82;84.26;100838.23;2191470;81;27645;-69
2022/11/28 07:21:02;;;;;;;88.97;47.20;;;;;;;1.85;84.25;100839.52;2191355;81;29415;-69
2022/11/28 07:24:04;;;;;;;91.60;49.13;;;;;;;1.92;84.47;100840.36;2190575;81;31032;-71
2022/11/28 07:27:05;;;;;;;92.55;49.55;;;;;;;2.01;84.56;100840.76;2191139;81;33767;-69
2022/11/28 07:30:08;;;;;;;96.95;52.95;;;;;;;2.02;84.20;100838.13;2191183;80;29304;-70
2022/11/28 07:33:09;;;;;;;93.37;50.65;;;;;;;2.04;84.33;100831.07;2191505;81;27705;-70
2022/11/28 07:36:14;;;;;;;95.55;51.63;;;;;;;2.11;84.39;100830.59;2191543;81;28737;-71
2022/11/28 07:39:16;;;;;;;88.15;49.08;;;;;;;2.17;84.26;100827.02;2192081;81;30943;-70
2022/11/28 07:42:17;;;;;;;78.33;45.52;;;;;;;2.16;83.86;100827.45;2191431;81;33791;-70
2022/11/28 07:45:18;;;;;;;75.80;43.83;;;;;;;2.16;83.76;100823.48;2191552;81;29310;-70
2022/11/28 07:48:20;;;;;;;86.90;46.25;;;;;;;2.13;83.59;100816.92;2191288;81;27674;-70
2022/11/28 07:51:24;;;;;;;77.12;43.78;;;;;;;2.13;83.69;100814.28;2191364;81;28813;-71
2022/11/28 07:54:25;;;;;;;78.87;47.00;;;;;;;2.18;83.70;100820.84;2191407;81;31858;-70
2022/11/28 07:57:27;;;;;;;80.85;45.25;;;;;;;2.15;83.48;100818.22;2191701;81;33888;-71
2022/11/28 08:00:28;;;;;;;78.47;46.45;;;;;;;2.13;83.70;100819.56;2191362;81;29315;-69
2022/11/28 08:03:29;;;;;;;81.87;46.23;;;;;;;2.19;83.83;100816.00;2191135;81;27621;-69
2022/11/28 08:06:33;;;;;;;82.22;45.70;;;;;;;2.20;83.65;100817.30;2191405;81;29504;-69
2022/11/28 08:09:34;;;;;;;78.28;44.67;;;;;;;2.20;83.67;100810.69;2167840;81;31826;-71
2022/11/28 08:12:36;;;;;;;84.90;46.80;;;;;;;2.23;83.62;100809.35;2190990;81;32937;-73
2022/11/28 08:15:38;;;;;;;86.55;48.60;;;;;;;2.28;83.79;100805.34;2191501;81;29363;-70
2022/11/28 08:18:40;;;;;;;90.42;47.03;;;;;;;2.38;83.84;100810.13;2191363;81;27650;-72
2022/11/28 08:21:41;;;;;;;81.55;46.83;;;;;;;2.42;83.75;100807.44;2191210;81;29451;-71
2022/11/28 08:24:42;;;;;;;83.12;48.00;;;;;;;2.52;84.04;100800.77;2189706;81;31017;-68
2022/11/28 08:27:44;;;;;;;95.15;51.15;;;;;;;2.59;83.84;100803.78;2189432;81;32996;-69
2022/11/28 08:30:45;;;;;;;81.12;43.45;;;;;;;2.68;83.77;100806.79;2186493;81;29314;-71
2022/11/28 08:33:48;;;;;;;76.62;46.40;;;;;;;2.74;83.39;100804.10;2181712;81;27695;-71
2022/11/28 08:36:50;;;;;;;79.62;45.98;;;;;;;2.77;83.56;100803.19;2181872;81;28727;-73
2022/11/28 08:39:51;;;;;;;75.12;43.85;;;;;;;2.81;83.38;100797.88;2181914;81;30436;-75
2022/11/28 08:42:52;;;;;;;80.80;45.78;;;;;;;2.85;83.24;100790.78;2182083;81;33366;-73
2022/11/28 08:45:53;;;;;;;83.07;45.88;;;;;;;2.89;83.35;100788.08;2181703;81;29341;-72
2022/11/28 08:48:55;;;;;;;76.17;44.45;;;;;;;2.97;83.36;100786.67;2181701;81;27714;-73
2022/11/28 08:51:56;;;;;;;77.53;44.40;;;;;;;2.98;82.86;100781.81;2181823;81;28634;-73
2022/11/28 08:54:57;;;;;;;70.22;41.00;;;;;;;3.03;83.04;100780.44;2182014;81;31023;-73
2022/11/28 08:57:59;;;;;;;81.65;46.68;;;;;;;3.06;83.05;100781.73;2181949;81;32935;-72
2022/11/28 09:01:00;;;;;;;79.22;45.95;;;;;;;3.11;83.06;100782.57;2181716;81;29325;-70
2022/11/28 09:04:01;;;;;;;79.85;45.63;;;;;;;3.21;83.15;100777.16;2181929;81;27766;-69
2022/11/28 09:07:03;;;;;;;74.87;42.20;;;;;;;3.26;82.85;100770.91;2131987;81;28691;-70
2022/11/28 09:10:07;;;;;;;77.67;45.63;;;;;;;3.34;82.80;100762.44;2181879;81;31024;-70
2022/11/28 09:13:08;;;;;;;79.95;44.63;;;;;;;3.40;82.78;100761.48;2181693;81;33756;-71
2022/11/28 09:16:09;;;;;;;71.45;43.55;;;;;;;3.46;82.86;100763.17;2181942;81;29364;-70
2022/11/28 09:19:11;;;;;;;68.40;42.27;;;;;;;3.50;82.60;100755.63;2181974;81;28132;-71
2022/11/28 09:22:12;;;;;;;77.87;44.63;;;;;;;3.52;82.64;100755.59;2181985;81;28951;-71
2022/11/28 09:25:14;;;;;;;73.07;42.20;;;;;;;3.54;82.55;100752.05;2177286;81;31748;-80
2022/11/28 09:28:15;;;;;;;75.22;44.08;;;;;;;3.60;82.44;100750.62;2177462;81;33754;-77
2022/11/28 09:31:18;;;;;;;69.37;41.88;;;;;;;3.68;82.58;100747.00;2182990;80;29311;-73
2022/11/28 09:34:20;;;;;;;70.05;41.58;;;;;;;3.79;82.70;100749.04;2191277;81;27737;-73
2022/11/28 09:37:22;;;;;;;75.12;41.30;;;;;;;3.92;82.61;100750.61;2191684;81;29589;-76
2022/11/28 09:40:28;;;;;;;75.32;40.65;;;;;;;4.00;82.24;100741.67;2191613;81;31087;-73
2022/11/28 09:43:37;;;;;;;68.72;39.83;;;;;;;4.06;82.32;100737.59;2190805;81;33169;-73
2022/11/28 09:46:39;;;;;;;60.00;35.98;;;;;;;4.15;81.91;100732.16;2190603;81;30116;-69
2022/11/28 09:50:06;;;;;;;78.12;42.35;;;;;;;4.23;81.93;100732.89;2191185;81;27721;-74
2022/11/28 09:53:43;;;;;;;72.25;39.78;;;;;;;4.33;82.30;100728.31;2128901;82;29473;-72
2022/11/28 09:56:48;;;;;;;69.80;40.85;;;;;;;4.47;82.28;100717.94;2114932;84;31035;-71
2022/11/28 09:59:49;;;;;;;66.95;39.83;;;;;;;4.60;81.94;100709.28;2114956;84;32967;-70
2022/11/28 10:03:14;;;;;;;64.60;38.28;;;;;;;4.68;82.00;100705.58;2115408;84;29321;-78
2022/11/28 10:06:38;;;;;;;65.73;39.00;;;;;;;4.86;82.04;100704.81;2117378;84;27797;-74
2022/11/28 10:10:12;;;;;;;64.62;38.25;;;;;;;5.04;82.04;100696.06;2116818;82;28885;-71
2022/11/28 10:13:30;;;;;;;61.15;36.35;;;;;;;5.15;81.53;100691.39;2116933;84;31833;-72
2022/11/28 10:16:59;;;;;;;68.67;39.05;;;;;;;5.10;80.47;100684.00;2116780;84;33848;-72
2022/11/28 10:20:23;;;;;;;65.32;37.08;;;;;;;5.04;80.62;100689.42;2116737;84;29340;-69
2022/11/28 10:23:34;;;;;;;62.48;37.98;;;;;;;4.94;80.52;100685.64;2131041;82;27696;-68
2022/11/28 10:26:38;;;;;;;61.85;38.50;;;;;;;4.89;80.66;100681.30;2164536;81;29476;-69
2022/11/28 10:30:09;;;;;;;61.85;37.75;;;;;;;4.89;80.88;100673.34;2190898;79;31034;-68
2022/11/28 10:33:21;;;;;;;63.58;37.00;;;;;;;5.00;81.52;100669.56;2111177;82;33051;-74
2022/11/28 10:36:32;;;;;;;61.80;35.80;;;;;;;5.17;81.08;100668.34;2201277;80;30141;-68
2022/11/28 10:39:36;;;;;;;57.83;34.70;;;;;;;5.26;81.01;100661.52;2159272;81;27673;-70
2022/11/28 10:42:55;;;;;;;62.85;36.25;;;;;;;5.38;80.64;100660.81;2200019;79;28661;-69
2022/11/28 10:46:32;;;;;;;54.67;33.10;;;;;;;5.46;80.66;100663.72;2198962;79;31841;-68
2022/11/28 10:50:05;;;;;;;56.83;32.98;;;;;;;5.52;79.65;100665.83;2184423;81;32954;-71
2022/11/28 10:53:34;;;;;;;56.80;33.00;;;;;;;5.59;80.16;100656.79;2191899;79;29337;-71
2022/11/28 10:56:44;;;;;;;56.25;33.83;;;;;;;5.66;80.00;100646.45;2184170;79;27628;-68
2022/11/28 11:00:11;;;;;;;51.13;31.17;;;;;;;5.72;79.40;100646.28;2196616;79;29512;-69
2022/11/28 11:03:16;;;;;;;49.55;31.68;;;;;;;5.73;79.28;100637.39;2109742;83;32314;-66
2022/11/28 11:06:17;;;;;;;51.73;32.17;;;;;;;5.78;78.92;100635.98;2118517;82;33018;-69
2022/11/28 11:09:19;;;;;;;51.55;31.02;;;;;;;5.81;79.01;100640.34;2162253;81;29307;-64
2022/11/28 11:12:26;;;;;;;48.28;29.82;;;;;;;5.80;78.65;100628.81;2200731;79;27668;-65
2022/11/28 11:15:31;;;;;;;49.80;30.20;;;;;;;5.81;78.63;100627.91;2196961;79;29888;-63
2022/11/28 11:18:36;;;;;;;49.50;28.55;;;;;;;5.77;78.61;100627.11;2201931;79;31439;-68
2022/11/28 11:21:37;;;;;;;48.23;28.42;;;;;;;5.73;78.03;100617.45;2194711;79;33741;-65
2022/11/28 11:24:38;;;;;;;41.85;28.00;;;;;;;5.67;77.78;100618.06;2196899;79;29320;-66
2022/11/28 11:27:59;;;;;;;53.78;30.75;;;;;;;5.61;77.82;100612.02;2120717;82;28348;-64
2022/11/28 11:31:07;;;;;;;47.00;28.47;;;;;;;5.56;77.71;100623.20;2146037;81;28722;-67
2022/11/28 11:34:15;;;;;;;50.38;29.45;;;;;;;5.52;77.93;100611.36;2150931;81;31174;-68
2022/11/28 11:37:31;;;;;;;40.80;25.43;;;;;;;5.46;77.80;100608.39;2179617;81;33161;-69
2022/11/28 11:40:32;;;;;;;41.50;25.57;;;;;;;5.41;77.50;100613.79;2186088;80;30139;-67
2022/11/28 11:43:37;;;;;;;44.25;25.52;;;;;;;5.36;77.73;100605.51;2179205;80;27926;-71
2022/11/28 11:46:51;;;;;;;;;;;;;;;5.32;77.58;100606.05;2140910;81;28134;-66
2022/11/28 11:49:58;;;;;;;39.35;23.87;;;;;;;5.29;77.68;100599.47;2188168;81;31087;-68
2022/11/28 11:53:10;;;;;;;42.73;25.37;;;;;;;5.23;77.61;100596.94;2166891;81;32973;-67
2022/11/28 11:56:12;;;;;;;36.90;24.27;;;;;;;5.20;77.14;100597.03;2163269;81;29339;-67
2022/11/28 11:59:30;;;;;;;38.55;23.75;;;;;;;5.16;77.44;100592.22;2168462;81;27978;-66
2022/11/28 12:02:40;;;;;;;37.85;23.83;;;;;;;5.15;77.71;100595.78;2205943;79;28751;-66
2022/11/28 12:05:55;;;;;;;36.53;23.22;;;;;;;5.13;77.55;100588.34;2246241;78;31087;-67
2022/11/28 12:09:13;;;;;;;38.48;23.22;;;;;;;5.10;77.47;100580.44;2239241;78;33819;-65
2022/11/28 12:12:27;;;;;;;39.20;24.80;;;;;;;5.08;77.54;100584.43;2226676;78;29296;-66
2022/11/28 12:15:55;;;;;;;41.18;24.45;;;;;;;5.05;77.32;100581.84;2221690;79;27694;-69
2022/11/28 12:19:41;;;;;;;42.45;25.82;;;;;;;5.02;77.31;100577.95;2230957;78;29495;-66
2022/11/28 12:22:51;;;;;;;;;;;;;;;4.99;77.27;100578.01;2194100;79;31015;-65
2022/11/28 12:26:17;;;;;;;39.00;24.65;;;;;;;4.97;77.41;100577.17;2178870;80;33933;-69
2022/11/28 12:29:39;;;;;;;36.58;22.02;;;;;;;4.92;77.31;100574.62;2210115;80;29303;-68
2022/11/28 12:32:58;;;;;;;35.20;20.68;;;;;;;4.90;77.27;100576.86;2185602;80;27897;-68
2022/11/28 12:36:20;;;;;;;41.37;22.67;;;;;;;4.88;77.15;100578.23;2169155;80;28709;-63
2022/11/28 12:39:45;;;;;;;41.53;22.90;;;;;;;4.88;77.29;100576.05;2181396;80;31385;-66
2022/11/28 12:43:07;;;;;;;33.35;21.05;;;;;;;4.86;77.34;100574.30;2168784;80;33000;-67
2022/11/28 12:46:14;;;;;;;37.45;21.70;;;;;;;4.85;77.21;100574.31;2183607;81;30116;-66
2022/11/28 12:49:28;;;;;;;33.53;22.52;;;;;;;4.84;77.30;100570.80;2259194;78;27742;-67
2022/11/28 12:52:47;;;;;;;36.63;22.15;;;;;;;4.85;77.14;100571.66;2224832;78;28655;-70
2022/11/28 12:56:06;;;;;;;40.40;23.67;;;;;;;4.85;76.98;100570.33;2206463;79;30995;-66
2022/11/28 12:59:20;;;;;;;36.98;23.80;;;;;;;4.85;77.20;100565.03;2197012;78;32745;-68
2022/11/28 13:02:53;;;;;;;46.28;23.98;;;;;;;4.86;77.16;100569.00;2182151;80;29338;-69
2022/11/28 13:06:33;;;;;;;36.93;22.32;;;;;;;4.88;77.22;100567.62;2210242;80;27782;-71
2022/11/28 13:09:55;;;;;;;36.48;21.77;;;;;;;4.89;77.07;100562.73;2083534;81;28688;-68
2022/11/28 13:13:10;;;;;;;33.75;20.55;;;;;;;4.90;76.95;100559.17;2181344;80;31861;-67
2022/11/28 13:16:23;;;;;;;34.45;21.05;;;;;;;4.89;77.04;100561.41;2175969;81;34085;-65
2022/11/28 13:19:53;;;;;;;36.05;21.23;;;;;;;4.90;77.11;100562.27;2227907;78;30539;-68
2022/11/28 13:23:07;;;;;;;32.80;21.07;;;;;;;4.89;76.87;100557.42;2242397;78;27700;-67
2022/11/28 13:26:38;;;;;;;33.40;20.60;;;;;;;4.87;76.82;100561.89;2213452;79;28662;-66
2022/11/28 13:29:53;;;;;;;33.38;18.60;;;;;;;4.85;76.69;100555.73;2191440;80;31028;-66
2022/11/28 13:33:18;;;;;;;;;;;;;;;4.82;76.70;100554.47;2200753;79;32977;-67
2022/11/28 13:36:40;;;;;;;27.27;17.62;;;;;;;4.80;76.74;100553.66;2211413;79;29378;-66
2022/11/28 13:39:54;;;;;;;30.97;18.52;;;;;;;4.76;76.68;100549.31;2241266;78;28470;-68
2022/11/28 13:43:13;;;;;;;35.55;19.73;;;;;;;4.71;76.73;100544.97;2216476;78;28860;-66
2022/11/28 13:46:23;;;;;;;34.78;20.35;;;;;;;4.70;76.79;100538.38;2240892;78;31054;-68
2022/11/28 13:49:29;;;;;;;33.23;19.10;;;;;;;4.67;76.83;100542.42;2228434;78;28842;-66
2022/11/28 13:52:31;;;;;;;30.62;19.10;;;;;;;4.65;76.71;100546.89;2220834;78;30121;-64
2022/11/28 13:55:48;;;;;;;31.50;17.80;;;;;;;4.61;76.59;100539.45;2240129;78;27624;-65
2022/11/28 13:58:57;;;;;;;35.20;18.62;;;;;;;4.59;76.71;100549.22;2223815;78;28642;-68
2022/11/28 14:02:02;;;;;;;30.75;19.00;;;;;;;4.55;76.72;100548.39;2225561;79;31007;-65
2022/11/28 14:05:07;;;;;;;30.40;18.45;;;;;;;4.53;76.70;100553.31;2228474;78;32965;-65
2022/11/28 14:08:12;;;;;;;;;;;;;;;4.49;76.56;100551.19;2136179;81;29327;-66
2022/11/28 14:12:05;;;;;;;42.13;25.48;;;;;;;4.46;76.56;100551.71;2147002;81;27739;-65
2022/11/28 14:15:27;;;;;;;38.70;19.57;;;;;;;4.40;76.81;100557.98;2192101;80;28728;-70
2022/11/28 14:19:01;;;;;;;32.90;19.17;;;;;;;4.34;76.70;100551.03;2225460;79;31244;-67
2022/11/28 14:22:37;;;;;;;33.35;18.65;;;;;;;4.31;76.84;100552.41;2237466;78;29104;-64
2022/11/28 14:25:43;;;;;;;33.38;19.60;;;;;;;4.26;76.81;100552.97;2230025;78;30089;-67
2022/11/28 14:28:44;;;;;;;;;;;;;;;4.21;76.82;100557.05;2232701;78;27731;-65
2022/11/28 14:31:46;;;;;;;32.28;18.98;;;;;;;4.16;76.82;100558.91;2225405;79;28638;-65